Time;durP1;ratioP1;P1;durP2;ratioP2;P2;SDS_P1;SDS_P2;PMS_P1;PMS_P2;Temp;Humidity;BMP_temperature;BMP_pressure;BME280_temperature;BME280_humidity;BME280_pressure;Samples;Min_cycle;Max_cycle;Signal;HPM_P1;HPM_P2
2022/07/19 00:03:41;;;;;;;9.08;3.75;;;;;;;20.81;66.05;101026.47;3489206;83;99072;-82
2022/07/19 00:08:42;;;;;;;9.65;3.95;;;;;;;20.80;66.34;101031.89;3483285;84;98733;-82
2022/07/19 00:13:44;;;;;;;8.40;3.58;;;;;;;20.77;66.23;101031.34;3490947;84;98841;-81
2022/07/19 00:18:45;;;;;;;7.37;3.47;;;;;;;20.75;66.20;101019.81;3475597;84;98774;-82
2022/07/19 00:23:46;;;;;;;7.90;4.12;;;;;;;20.73;66.16;101013.87;3460268;84;98634;-82
2022/07/19 00:28:47;;;;;;;7.70;3.83;;;;;;;20.70;66.32;101008.35;3455317;85;98837;-82
2022/07/19 00:33:48;;;;;;;7.78;4.10;;;;;;;20.68;66.53;101012.17;3446635;85;98897;-82
2022/07/19 00:38:49;;;;;;;8.73;4.15;;;;;;;20.67;67.01;101010.00;3436622;85;98903;-82
2022/07/19 00:43:51;;;;;;;8.58;4.25;;;;;;;20.68;67.03;101013.56;3461234;84;99139;-82
2022/07/19 00:48:52;;;;;;;8.20;4.03;;;;;;;20.67;67.03;101003.61;3464563;83;98468;-82
2022/07/19 00:53:55;;;;;;;9.08;3.67;;;;;;;20.64;67.15;101009.45;3463013;85;98719;-82
2022/07/19 00:59:01;;;;;;;10.08;4.30;;;;;;;20.65;67.45;101004.66;3452107;84;98638;-82
2022/07/19 01:04:02;;;;;;;9.77;4.57;;;;;;;20.65;67.66;101013.05;3449810;85;99113;-82
2022/07/19 01:09:03;;;;;;;8.55;4.50;;;;;;;20.62;67.73;101015.30;3436236;84;98894;-82
2022/07/19 01:14:04;;;;;;;9.03;4.35;;;;;;;20.59;67.82;101008.55;3431620;85;98891;-82
2022/07/19 01:19:06;;;;;;;9.35;4.00;;;;;;;20.56;68.03;101010.83;3450468;84;98449;-82
2022/07/19 01:24:07;;;;;;;9.93;4.30;;;;;;;20.54;68.20;101006.88;3470144;84;98735;-83
2022/07/19 01:29:08;;;;;;;9.63;3.98;;;;;;;20.50;68.34;101010.36;3490953;83;99198;-82
2022/07/19 01:34:09;;;;;;;9.58;4.30;;;;;;;20.46;68.41;101007.63;3482669;84;98815;-82
2022/07/19 01:39:10;;;;;;;9.55;4.47;;;;;;;20.44;68.62;101007.88;3471779;84;98739;-82
2022/07/19 01:44:11;;;;;;;7.65;4.17;;;;;;;20.40;68.56;101000.97;3474885;84;98819;-82
2022/07/19 01:49:12;;;;;;;9.68;4.10;;;;;;;20.39;68.60;101002.79;3480550;84;98505;-82
2022/07/19 01:54:13;;;;;;;10.88;4.53;;;;;;;20.36;68.55;100991.86;3489330;84;99179;-82
2022/07/19 01:59:14;;;;;;;8.10;4.28;;;;;;;20.34;68.81;100990.11;3462206;84;98969;-82
2022/07/19 02:04:15;;;;;;;8.88;4.30;;;;;;;20.33;68.97;100995.50;3484316;84;98966;-82
2022/07/19 02:09:16;;;;;;;8.40;4.53;;;;;;;20.31;68.99;100988.16;3462442;84;98785;-83
2022/07/19 02:14:18;;;;;;;9.88;4.25;;;;;;;20.29;69.22;100994.00;3476090;84;98929;-82
2022/07/19 02:19:20;;;;;;;8.33;4.35;;;;;;;20.27;69.46;100993.02;3484789;84;98801;-82
2022/07/19 02:24:21;;;;;;;9.33;4.25;;;;;;;20.24;69.56;100990.30;3464894;84;98560;-83
2022/07/19 02:29:22;;;;;;;8.57;4.57;;;;;;;20.20;69.74;100993.77;3464637;85;98892;-82
2022/07/19 02:34:23;;;;;;;8.93;4.20;;;;;;;20.12;69.84;100998.69;3457359;85;98974;-82
2022/07/19 02:39:24;;;;;;;9.00;4.37;;;;;;;20.07;69.83;100995.63;3442876;84;98909;-82
2022/07/19 02:44:25;;;;;;;9.47;4.13;;;;;;;19.98;70.08;100997.55;3437155;84;98879;-82
2022/07/19 02:49:26;;;;;;;7.77;4.03;;;;;;;19.90;70.16;100996.08;3465424;84;98575;-82
2022/07/19 02:54:27;;;;;;;11.53;4.73;;;;;;;19.84;70.34;101001.20;3472435;83;98521;-82
2022/07/19 02:59:28;;;;;;;10.40;4.83;;;;;;;19.73;70.41;100988.80;3452920;84;98805;-82
2022/07/19 03:04:29;;;;;;;13.00;4.17;;;;;;;19.68;70.92;100992.08;3465259;85;99110;-82
2022/07/19 03:09:31;;;;;;;11.00;4.57;;;;;;;19.60;70.96;100997.62;3441550;84;99039;-82
2022/07/19 03:14:32;;;;;;;8.27;4.17;;;;;;;19.53;71.16;101004.72;3464831;84;99007;-82
2022/07/19 03:19:33;;;;;;;8.60;4.20;;;;;;;19.44;71.35;101000.27;3464346;85;98873;-82
2022/07/19 03:24:33;;;;;;;12.58;4.53;;;;;;;19.39;71.67;101006.92;3438987;85;33261;-82
2022/07/19 03:29:35;;;;;;;8.93;4.13;;;;;;;19.33;71.80;101000.24;3460461;85;99072;-82
2022/07/19 03:34:35;;;;;;;9.97;4.20;;;;;;;19.27;72.05;100991.57;3464527;83;99197;-82
2022/07/19 03:39:37;;;;;;;8.33;3.83;;;;;;;19.23;71.99;100998.42;3437084;85;98805;-82
2022/07/19 03:44:38;;;;;;;9.50;3.60;;;;;;;19.18;72.35;100997.48;3457055;84;98902;-82
2022/07/19 03:49:38;;;;;;;8.23;5.03;;;;;;;19.18;72.52;101001.66;3433990;85;98907;-82
2022/07/19 03:54:40;;;;;;;8.50;4.77;;;;;;;19.18;72.76;100990.50;3445190;85;32325;-82
2022/07/19 03:59:42;;;;;;;10.13;4.63;;;;;;;19.18;72.98;100990.50;3451014;85;98645;-82
2022/07/19 04:04:43;;;;;;;10.67;4.67;;;;;;;19.21;73.08;100986.84;3459945;85;99027;-83
2022/07/19 04:09:44;;;;;;;9.27;4.50;;;;;;;19.20;73.06;100986.08;3456889;84;98952;-84
2022/07/19 04:14:45;;;;;;;11.63;5.33;;;;;;;19.21;73.22;100991.03;3469449;85;98807;-84
2022/07/19 04:19:46;;;;;;;8.80;4.30;;;;;;;19.21;73.23;100993.83;3462760;83;99059;-85
2022/07/19 04:24:47;;;;;;;9.40;4.50;;;;;;;19.20;73.13;100983.28;3463890;84;31666;-87
2022/07/19 04:29:48;;;;;;;9.83;4.90;;;;;;;19.17;73.25;100980.52;3484933;84;98793;-86
2022/07/19 04:34:49;;;;;;;10.00;4.43;;;;;;;19.14;73.17;100985.56;3468416;84;98802;-86
2022/07/19 04:39:50;;;;;;;15.37;4.60;;;;;;;19.12;73.44;100977.61;3481997;84;99037;-86
2022/07/19 04:44:51;;;;;;;13.43;5.30;;;;;;;19.07;73.53;100982.89;3470325;84;99056;-87
2022/07/19 04:49:52;;;;;;;10.30;5.12;;;;;;;19.03;73.67;100980.13;3473668;84;99321;-86
2022/07/19 04:54:53;;;;;;;9.20;5.10;;;;;;;18.96;71.62;100986.44;3490341;84;31691;-85
2022/07/19 04:59:54;;;;;;;12.55;5.50;;;;;;;19.01;72.52;100995.73;3489118;83;98828;-85
2022/07/19 05:04:55;;;;;;;13.80;5.47;;;;;;;19.05;72.75;101000.64;3487650;84;98812;-85
2022/07/19 05:09:56;;;;;;;12.37;5.33;;;;;;;19.10;72.51;100999.58;3481172;84;98990;-85
2022/07/19 05:14:58;;;;;;;12.80;6.12;;;;;;;19.16;71.62;100994.30;3489790;84;99039;-85
2022/07/19 05:19:59;;;;;;;10.48;5.08;;;;;;;19.25;70.28;101000.18;3477522;84;98907;-84
2022/07/19 05:25:00;;;;;;;16.27;5.53;;;;;;;19.39;69.00;100999.94;3487171;84;31748;-84
2022/07/19 05:30:03;;;;;;;11.53;5.55;;;;;;;19.60;68.90;100987.84;3461431;83;99269;-84
2022/07/19 05:35:05;;;;;;;12.25;5.20;;;;;;;20.01;68.16;100991.09;3451037;84;98794;-85
2022/07/19 05:40:07;;;;;;;10.18;5.30;;;;;;;20.56;66.77;100983.46;3483185;84;98969;-85
2022/07/19 05:45:10;;;;;;;9.15;4.40;;;;;;;21.21;66.31;100988.04;3484851;83;98961;-84
2022/07/19 05:50:11;;;;;;;12.45;5.28;;;;;;;21.95;64.03;100982.78;3482009;84;98917;-84
2022/07/19 05:55:12;;;;;;;10.25;4.58;;;;;;;22.76;63.54;100992.52;3478423;84;31757;-85
2022/07/19 06:00:14;;;;;;;10.78;4.92;;;;;;;23.58;61.28;100993.75;3452109;84;99033;-86
2022/07/19 06:05:15;;;;;;;14.70;5.05;;;;;;;24.27;59.07;100991.98;3479967;84;98824;-85
2022/07/19 06:10:16;;;;;;;10.80;4.85;;;;;;;25.10;57.86;100994.25;3483044;84;99056;-86
2022/07/19 06:15:17;;;;;;;9.50;4.57;;;;;;;25.87;56.34;100995.91;3489490;84;99021;-85
2022/07/19 06:20:18;;;;;;;8.60;4.55;;;;;;;26.51;53.83;100998.95;3470129;84;98836;-85
2022/07/19 06:25:19;;;;;;;10.63;4.65;;;;;;;27.17;52.44;100997.28;3490518;83;32280;-85
2022/07/19 06:30:20;;;;;;;9.63;4.17;;;;;;;27.89;50.14;101001.16;3469195;84;98717;-86
2022/07/19 06:35:21;;;;;;;8.13;4.20;;;;;;;28.27;47.63;100995.53;3479088;84;98713;-85
2022/07/19 06:40:22;;;;;;;7.97;3.80;;;;;;;28.75;47.18;100987.08;3482411;84;98828;-86
2022/07/19 06:45:24;;;;;;;10.88;4.33;;;;;;;29.06;45.21;100990.86;3489427;84;98111;-84
2022/07/19 06:50:25;;;;;;;10.35;3.72;;;;;;;29.52;43.98;100985.53;3481637;83;99066;-85
2022/07/19 06:55:26;;;;;;;8.40;3.58;;;;;;;29.82;42.98;100985.61;3490533;84;31625;-84
2022/07/19 07:00:27;;;;;;;13.60;3.87;;;;;;;30.33;42.96;100986.37;3462759;84;98423;-85
2022/07/19 07:05:28;;;;;;;9.08;3.20;;;;;;;30.65;41.81;100986.59;3476522;83;98917;-85
2022/07/19 07:10:29;;;;;;;7.42;3.55;;;;;;;31.00;41.48;100991.48;3467933;83;98890;-85
2022/07/19 07:15:31;;;;;;;9.90;3.90;;;;;;;31.20;40.46;100994.23;3489877;84;98837;-85
2022/07/19 07:20:34;;;;;;;9.93;3.47;;;;;;;31.59;39.41;100996.08;3466128;84;98834;-85
2022/07/19 07:25:35;;;;;;;7.78;3.42;;;;;;;31.82;39.45;100992.09;3477861;84;98904;-84
2022/07/19 07:30:36;;;;;;;10.32;3.27;;;;;;;32.16;39.61;100989.55;3445846;85;98444;-85
2022/07/19 07:35:37;;;;;;;10.03;3.70;;;;;;;32.55;37.56;100989.66;3446265;85;98885;-86
2022/07/19 07:40:38;;;;;;;8.68;3.20;;;;;;;32.57;35.81;100999.27;3457761;85;99016;-85
2022/07/19 07:45:39;;;;;;;8.88;2.90;;;;;;;32.55;35.59;100991.88;3450068;85;98090;-84
2022/07/19 07:50:41;;;;;;;11.18;3.30;;;;;;;32.46;35.20;100987.05;3430842;84;98838;-85
2022/07/19 07:55:42;;;;;;;6.50;2.92;;;;;;;32.39;35.28;100987.55;3468770;84;99033;-83
2022/07/19 08:00:43;;;;;;;9.25;3.15;;;;;;;32.19;35.17;100987.71;3463652;84;98643;-85
2022/07/19 08:05:49;;;;;;;8.95;3.42;;;;;;;32.00;35.63;100985.19;3458410;84;98855;-84
2022/07/19 08:10:47;;;;;;;14.63;3.47;;;;;;;31.95;35.04;100990.22;3441315;85;98864;-84
2022/07/19 08:15:49;;;;;;;18.07;3.70;;;;;;;32.19;35.78;100983.44;3469096;85;99059;-85
2022/07/19 08:20:50;;;;;;;12.90;3.33;;;;;;;32.57;33.63;100981.38;3455832;84;99073;-84
2022/07/19 08:25:51;;;;;;;13.10;3.25;;;;;;;32.64;33.04;100982.31;3459985;84;99006;-85
2022/07/19 08:30:52;;;;;;;7.12;2.77;;;;;;;32.84;32.80;100979.23;3445639;85;98527;-84
2022/07/19 08:35:53;;;;;;;7.53;2.77;;;;;;;33.63;33.31;100968.83;3462851;84;98837;-84
2022/07/19 08:40:55;;;;;;;9.25;2.47;;;;;;;34.14;32.11;100973.84;3458518;84;98625;-85
2022/07/19 08:46:00;;;;;;;9.18;2.62;;;;;;;34.61;32.69;100973.99;3458418;84;98835;-85
2022/07/19 08:51:04;;;;;;;6.25;2.12;;;;;;;35.48;31.11;100968.83;3455138;84;98907;-85
2022/07/19 08:57:56;;;;;;;6.87;2.42;;;;;;;35.97;29.81;100968.94;3468437;84;99231;-84
2022/07/19 09:01:09;;;;;;;8.65;2.60;;;;;;;36.45;30.10;100965.20;3444212;85;98635;-86
2022/07/19 09:06:10;;;;;;;6.60;2.98;;;;;;;36.56;27.90;100955.76;3464513;84;98767;-85
2022/07/19 09:11:16;;;;;;;6.33;2.77;;;;;;;36.30;26.49;100958.52;3453668;84;98610;-85
2022/07/19 09:16:17;;;;;;;7.55;2.83;;;;;;;36.51;27.01;100952.31;3461444;85;99189;-84
2022/07/19 09:21:18;;;;;;;7.53;2.50;;;;;;;37.15;28.36;100954.59;3441341;84;99020;-86
2022/07/19 09:26:19;;;;;;;5.35;2.70;;;;;;;37.55;26.79;100954.77;3456705;84;98922;-86
2022/07/19 09:31:20;;;;;;;8.35;2.77;;;;;;;37.84;25.71;100950.13;3448870;85;98297;-85
2022/07/19 09:36:21;;;;;;;4.95;2.60;;;;;;;37.71;25.28;100942.94;3444935;85;98517;-85
2022/07/19 09:41:22;;;;;;;7.78;2.60;;;;;;;38.07;25.23;100948.34;3432621;84;98731;-84
2022/07/19 09:46:37;;;;;;;10.58;3.65;;;;;;;37.73;23.88;100932.33;3444961;85;99080;-84
2022/07/19 09:51:44;;;;;;;6.62;2.77;;;;;;;37.42;23.98;100944.70;3452079;85;98207;-84
2022/07/19 09:56:48;;;;;;;8.85;3.95;;;;;;;38.09;26.31;100931.30;3448893;84;98648;-84
2022/07/19 10:01:51;;;;;;;5.55;2.45;;;;;;;38.78;24.93;100925.77;3454867;84;98091;-84
2022/07/19 10:06:54;;;;;;;8.30;2.90;;;;;;;39.37;25.38;100923.98;3433856;83;98917;-84
2022/07/19 10:11:55;;;;;;;5.73;2.70;;;;;;;39.86;24.87;100926.91;3465628;83;98720;-84
2022/07/19 10:17:05;;;;;;;5.97;2.50;;;;;;;39.89;23.51;100929.33;3445264;84;99033;-84
2022/07/19 10:22:13;;;;;;;4.53;2.35;;;;;;;39.64;22.62;100925.31;3450094;85;98889;-83
2022/07/19 10:27:18;;;;;;;5.53;2.62;;;;;;;39.19;23.52;100916.35;3457845;84;98917;-84
2022/07/19 10:32:29;;;;;;;5.92;2.95;;;;;;;39.48;24.33;100919.36;3489601;84;98834;-84
2022/07/19 10:37:42;;;;;;;5.50;2.77;;;;;;;40.06;23.74;100913.08;3473228;84;98861;-83
2022/07/19 10:43:09;;;;;;;5.15;2.72;;;;;;;40.17;22.91;100906.20;3461081;84;25912;-84
2022/07/19 10:48:14;;;;;;;16.25;3.40;;;;;;;40.54;23.31;100904.09;3481966;84;99004;-83
2022/07/19 10:53:43;;;;;;;6.33;2.58;;;;;;;40.79;22.73;100914.53;3467720;84;98838;-83
2022/07/19 10:58:57;;;;;;;9.50;2.70;;;;;;;40.71;22.98;100896.45;3471019;83;98842;-84
2022/07/19 11:04:25;;;;;;;5.85;2.90;;;;;;;41.15;22.27;100898.48;3478776;84;98811;-84
2022/07/19 11:09:44;;;;;;;10.20;3.80;;;;;;;40.44;22.13;100882.91;3482427;84;98985;-86
2022/07/19 11:14:45;;;;;;;4.58;2.67;;;;;;;40.84;22.22;100875.25;3486986;84;98984;-85
2022/07/19 11:20:07;;;;;;;3.95;2.50;;;;;;;40.96;22.63;100875.02;3441357;84;98800;-83
2022/07/19 11:25:10;;;;;;;4.55;2.30;;;;;;;40.81;23.09;100867.77;3493103;84;26065;-82
2022/07/19 11:30:13;;;;;;;7.25;2.80;;;;;;;41.20;22.99;100864.28;3445856;84;98786;-83
2022/07/19 11:35:16;;;;;;;5.28;3.02;;;;;;;41.34;21.69;100859.14;3453201;85;98772;-83
2022/07/19 11:40:17;;;;;;;5.83;2.92;;;;;;;41.78;22.57;100851.72;3442692;84;98929;-83
2022/07/19 11:45:25;;;;;;;5.75;2.35;;;;;;;41.80;21.97;100852.59;3436235;85;98880;-83
2022/07/19 11:50:27;;;;;;;6.15;2.95;;;;;;;41.83;22.50;100865.20;3452015;85;98783;-82
2022/07/19 11:55:36;;;;;;;4.83;2.90;;;;;;;42.01;21.99;100844.39;3448034;84;25932;-85
2022/07/19 12:00:43;;;;;;;5.47;3.20;;;;;;;41.57;20.71;100851.89;3441870;85;98625;-83
2022/07/19 12:06:04;;;;;;;6.83;3.10;;;;;;;41.39;21.23;100845.20;3455040;85;98618;-84
2022/07/19 12:11:24;;;;;;;6.45;3.00;;;;;;;41.37;22.80;100850.80;3455176;85;99171;-83
2022/07/19 12:16:26;;;;;;;4.03;2.45;;;;;;;41.60;22.89;100844.27;3477880;83;98912;-81
2022/07/19 12:21:36;;;;;;;6.37;3.10;;;;;;;41.61;23.50;100842.12;3394885;85;98946;-83
2022/07/19 12:26:40;;;;;;;6.83;3.07;;;;;;;41.60;23.38;100843.48;3455016;84;108334;-84
2022/07/19 12:31:49;;;;;;;5.15;2.92;;;;;;;41.68;23.17;100821.86;3462569;85;99064;-83
2022/07/19 12:36:50;;;;;;;7.25;3.10;;;;;;;41.90;23.85;100821.70;3454798;85;98595;-85
2022/07/19 12:42:04;;;;;;;5.92;3.08;;;;;;;41.74;21.67;100826.74;3456291;85;98706;-84
2022/07/19 12:47:06;;;;;;;4.72;2.77;;;;;;;40.88;20.30;100821.56;3452564;85;98835;-83
2022/07/19 12:52:07;;;;;;;5.42;3.10;;;;;;;40.58;21.89;100823.02;3449909;85;98837;-84
2022/07/19 12:57:08;;;;;;;6.60;3.70;;;;;;;40.81;21.99;100812.91;3459241;83;98909;-82
2022/07/19 13:02:13;;;;;;;6.92;2.77;;;;;;;40.81;22.42;100817.99;3465555;84;98938;-83
2022/07/19 13:07:15;;;;;;;6.47;3.35;;;;;;;40.86;22.37;100820.61;3447504;85;98733;-82
2022/07/19 13:12:16;;;;;;;6.60;3.25;;;;;;;40.88;23.23;100820.13;3459739;85;98728;-82
2022/07/19 13:17:17;;;;;;;5.03;3.10;;;;;;;40.82;22.85;100815.23;3453796;85;98728;-82
2022/07/19 13:22:18;;;;;;;9.20;4.60;;;;;;;40.73;21.26;100799.14;3464814;84;98015;-83
2022/07/19 13:27:19;;;;;;;6.25;3.85;;;;;;;40.52;23.42;100802.87;3450405;84;98931;-84
2022/07/19 13:32:21;;;;;;;7.78;3.87;;;;;;;40.54;22.50;100806.72;3469484;84;98885;-82
2022/07/19 13:37:22;;;;;;;7.15;3.40;;;;;;;39.98;21.74;100806.27;3463439;84;98505;-82
2022/07/19 13:42:23;;;;;;;11.12;3.40;;;;;;;39.94;23.19;100805.86;3482748;84;98480;-84
2022/07/19 13:47:25;;;;;;;8.78;3.95;;;;;;;40.12;22.65;100791.75;3479666;84;98946;-84
2022/07/19 13:52:26;;;;;;;6.87;3.40;;;;;;;39.99;21.44;100790.49;3486842;84;98921;-84
2022/07/19 13:57:27;;;;;;;8.40;3.33;;;;;;;39.99;23.56;100784.03;3483256;84;98518;-85
2022/07/19 14:02:28;;;;;;;6.08;3.12;;;;;;;39.96;22.26;100780.88;3487652;84;98869;-85
2022/07/19 14:07:29;;;;;;;5.95;3.50;;;;;;;39.62;20.89;100773.14;3482744;84;99017;-85
2022/07/19 14:12:31;;;;;;;7.10;3.50;;;;;;;39.16;22.02;100777.80;3491751;84;25864;-83
2022/07/19 14:17:31;;;;;;;5.80;2.95;;;;;;;39.09;23.68;100772.13;3478085;84;98786;-81
2022/07/19 14:22:33;;;;;;;5.85;3.20;;;;;;;39.26;24.25;100774.50;3489763;84;98918;-81
2022/07/19 14:27:34;;;;;;;7.05;3.37;;;;;;;39.03;23.30;100772.17;3479058;84;98833;-82
2022/07/19 14:32:35;;;;;;;4.95;2.67;;;;;;;38.82;24.68;100761.35;3475106;85;98781;-82
2022/07/19 14:37:36;;;;;;;6.17;3.30;;;;;;;38.73;24.02;100759.77;3450286;84;98925;-85
2022/07/19 14:42:38;;;;;;;7.25;2.95;;;;;;;38.63;22.91;100759.41;3440084;85;26140;-84
2022/07/19 14:47:40;;;;;;;5.75;3.00;;;;;;;38.38;22.14;100761.09;3455184;84;99178;-85
2022/07/19 14:52:42;;;;;;;7.60;3.50;;;;;;;38.15;23.90;100755.15;3448644;84;99174;-83
2022/07/19 14:57:43;;;;;;;6.90;2.93;;;;;;;37.98;23.23;100744.67;3458871;84;99294;-83
2022/07/19 15:02:44;;;;;;;5.42;3.17;;;;;;;37.74;24.15;100755.72;3464053;85;99214;-83
2022/07/19 15:07:45;;;;;;;6.53;3.12;;;;;;;37.72;25.09;100746.25;3465566;83;98746;-82
2022/07/19 15:12:46;;;;;;;8.53;3.35;;;;;;;37.71;25.11;100761.92;3414734;85;25956;-83
2022/07/19 15:17:47;;;;;;;6.03;3.35;;;;;;;37.58;25.30;100759.09;3458962;84;98551;-83
2022/07/19 15:22:48;;;;;;;7.92;3.77;;;;;;;37.13;24.87;100755.63;3459871;85;98812;-84
2022/07/19 15:27:52;;;;;;;7.70;3.65;;;;;;;36.85;23.69;100753.96;3455409;84;98914;-82
2022/07/19 15:32:53;;;;;;;5.45;2.92;;;;;;;36.70;24.73;100748.64;3449578;85;99361;-83
2022/07/19 15:37:54;;;;;;;6.25;3.08;;;;;;;36.50;26.06;100743.53;3458869;85;98708;-82
2022/07/19 15:42:55;;;;;;;6.42;3.42;;;;;;;36.46;26.96;100746.70;3437274;85;25858;-83
2022/07/19 15:47:56;;;;;;;4.80;2.85;;;;;;;36.46;26.80;100745.94;3454838;83;99121;-82
2022/07/19 15:52:58;;;;;;;5.28;3.10;;;;;;;36.32;26.18;100746.58;3447725;84;99177;-84
2022/07/19 15:57:59;;;;;;;6.83;3.75;;;;;;;36.08;26.92;100741.63;3437651;85;98898;-83
2022/07/19 16:03:01;;;;;;;8.83;3.92;;;;;;;35.68;25.68;100734.93;3458425;85;99343;-83
2022/07/19 16:08:02;;;;;;;9.08;3.70;;;;;;;35.46;25.09;100733.06;3464541;85;99239;-82
2022/07/19 16:13:03;;;;;;;7.03;3.65;;;;;;;35.25;26.10;100734.92;3463435;85;25831;-82
2022/07/19 16:18:04;;;;;;;6.95;3.77;;;;;;;34.90;27.08;100728.69;3419093;84;99151;-82
2022/07/19 16:23:06;;;;;;;9.80;4.42;;;;;;;34.67;27.55;100732.30;3454892;85;98738;-82
2022/07/19 16:28:08;;;;;;;5.05;3.33;;;;;;;34.39;26.87;100731.81;3461308;83;98831;-81
2022/07/19 16:33:10;;;;;;;8.13;3.75;;;;;;;34.15;28.11;100728.87;3461384;85;99313;-82
2022/07/19 16:38:11;;;;;;;7.85;3.85;;;;;;;33.95;28.50;100731.50;3451361;84;98869;-81
2022/07/19 16:43:12;;;;;;;7.47;4.05;;;;;;;33.81;28.91;100735.52;3451790;85;26634;-82
2022/07/19 16:48:14;;;;;;;8.75;4.05;;;;;;;33.53;29.18;100728.41;3447720;85;99159;-82
2022/07/19 16:53:15;;;;;;;9.00;4.50;;;;;;;33.29;30.15;100723.34;3423219;85;99046;-82
2022/07/19 16:58:16;;;;;;;9.33;4.60;;;;;;;33.11;30.27;100737.41;3456690;85;98916;-82
2022/07/19 17:03:17;;;;;;;6.17;3.65;;;;;;;32.93;30.52;100730.23;3437638;85;98859;-82
2022/07/19 17:08:19;;;;;;;7.58;3.98;;;;;;;32.74;31.02;100729.89;3440356;85;98900;-82
2022/07/19 17:13:20;;;;;;;6.95;3.52;;;;;;;32.59;31.11;100732.25;3451733;83;26673;-82
2022/07/19 17:18:21;;;;;;;7.35;4.10;;;;;;;32.40;31.45;100738.35;3450821;85;98843;-82
2022/07/19 17:23:22;;;;;;;6.67;3.72;;;;;;;32.20;31.81;100733.68;3442379;85;98993;-82
2022/07/19 17:28:23;;;;;;;10.53;3.98;;;;;;;32.05;32.37;100728.91;3463056;84;98823;-81
2022/07/19 17:33:24;;;;;;;7.97;3.83;;;;;;;31.90;32.76;100734.08;3484498;84;99038;-82
2022/07/19 17:38:27;;;;;;;6.42;3.80;;;;;;;31.71;33.11;100727.95;3473692;84;100665;-81
2022/07/19 17:43:28;;;;;;;7.10;3.65;;;;;;;31.60;33.34;100742.16;3480769;84;34786;-81
2022/07/19 17:48:29;;;;;;;8.18;3.92;;;;;;;31.43;33.75;100751.30;3459212;84;98603;-81
2022/07/19 17:53:31;;;;;;;7.58;3.72;;;;;;;31.21;34.31;100754.83;3473896;84;98722;-81
2022/07/19 17:58:32;;;;;;;6.95;3.55;;;;;;;31.08;34.84;100755.92;3472266;84;98989;-82
2022/07/19 18:03:33;;;;;;;7.58;3.90;;;;;;;30.91;35.15;100762.80;3488646;84;98942;-81
2022/07/19 18:08:34;;;;;;;9.38;3.92;;;;;;;30.76;35.70;100760.77;3472978;84;98936;-81
2022/07/19 18:13:35;;;;;;;8.68;3.42;;;;;;;30.59;36.42;100769.17;3482542;84;98987;-82
2022/07/19 18:18:36;;;;;;;8.20;4.58;;;;;;;30.42;36.90;100761.81;3483788;84;98802;-81
2022/07/19 18:23:37;;;;;;;7.65;3.72;;;;;;;30.19;37.35;100764.34;3489980;84;99164;-82
2022/07/19 18:28:39;;;;;;;9.03;4.60;;;;;;;30.00;37.77;100776.66;3478639;83;99193;-81
2022/07/19 18:33:40;;;;;;;8.75;3.83;;;;;;;29.77;37.77;100772.69;3486105;84;98909;-82
2022/07/19 18:38:41;;;;;;;8.25;4.20;;;;;;;29.55;37.93;100773.87;3483486;83;98809;-82
2022/07/19 18:43:42;;;;;;;6.12;3.60;;;;;;;29.34;38.88;100768.84;3488541;84;98832;-82
2022/07/19 18:48:43;;;;;;;11.63;4.30;;;;;;;29.17;39.48;100782.03;3482911;84;98446;-82
2022/07/19 18:53:44;;;;;;;7.20;4.00;;;;;;;28.98;40.04;100783.56;3489617;84;98783;-82
2022/07/19 18:58:45;;;;;;;11.03;4.80;;;;;;;28.75;40.29;100785.13;3481064;84;98799;-82
2022/07/19 19:03:47;;;;;;;8.43;4.67;;;;;;;28.55;41.21;100784.45;3489167;84;99115;-81
2022/07/19 19:08:52;;;;;;;8.18;4.60;;;;;;;28.37;41.75;100798.02;3473050;84;99144;-82
2022/07/19 19:13:53;;;;;;;10.20;4.42;;;;;;;28.17;42.59;100796.54;3487435;84;98838;-81
2022/07/19 19:18:55;;;;;;;14.78;6.92;;;;;;;27.98;43.48;100797.37;3484360;83;98900;-81
2022/07/19 19:23:56;;;;;;;8.65;4.83;;;;;;;27.79;44.19;100802.28;3465796;84;99239;-82
2022/07/19 19:28:58;;;;;;;9.65;5.03;;;;;;;27.58;44.73;100818.28;3479500;84;98792;-82
2022/07/19 19:34:00;;;;;;;10.80;6.03;;;;;;;27.42;45.39;100821.58;3461987;85;99017;-81
2022/07/19 19:39:01;;;;;;;14.05;8.10;;;;;;;27.24;45.97;100826.58;3442916;85;99073;-81
2022/07/19 19:44:02;;;;;;;13.43;7.80;;;;;;;27.11;46.88;100831.64;3451917;84;99026;-81
2022/07/19 19:49:04;;;;;;;17.32;7.60;;;;;;;26.94;47.29;100830.48;3456709;84;98827;-81
2022/07/19 19:54:05;;;;;;;10.88;7.67;;;;;;;26.80;47.42;100834.03;3440536;84;98888;-81
2022/07/19 19:59:06;;;;;;;10.28;6.40;;;;;;;26.64;48.08;100840.83;3463451;83;98694;-81
2022/07/19 20:04:08;;;;;;;12.30;5.87;;;;;;;26.50;48.05;100833.64;3450932;85;99106;-82
2022/07/19 20:09:09;;;;;;;10.00;5.37;;;;;;;26.34;47.71;100834.01;3454783;85;99155;-81
2022/07/19 20:14:13;;;;;;;8.80;4.78;;;;;;;26.19;47.89;100828.87;3424362;84;99143;-81
2022/07/19 20:19:18;;;;;;;9.53;5.80;;;;;;;26.07;48.32;100834.87;3451291;85;98518;-81
2022/07/19 20:24:19;;;;;;;11.95;5.60;;;;;;;25.96;48.52;100836.59;3452935;84;98728;-82
2022/07/19 20:29:20;;;;;;;10.78;5.85;;;;;;;25.82;48.55;100835.81;3442176;84;98919;-82
2022/07/19 20:34:21;;;;;;;9.38;5.28;;;;;;;25.74;49.23;100840.19;3438103;84;99174;-82
2022/07/19 20:39:22;;;;;;;7.72;4.47;;;;;;;25.64;49.30;100835.19;3460411;85;98879;-82
2022/07/19 20:44:24;;;;;;;9.28;4.75;;;;;;;25.54;49.35;100843.48;3447631;84;98858;-84
2022/07/19 20:49:25;;;;;;;8.40;4.30;;;;;;;25.40;48.75;100840.50;3439807;84;98956;-83
2022/07/19 20:54:26;;;;;;;12.45;4.30;;;;;;;25.25;48.58;100840.33;3462543;85;98695;-83
2022/07/19 20:59:27;;;;;;;6.83;3.87;;;;;;;25.16;48.90;100840.88;3456070;84;98965;-82
2022/07/19 21:04:28;;;;;;;7.37;4.37;;;;;;;25.04;49.30;100846.82;3467831;84;98793;-82
2022/07/19 21:09:29;;;;;;;7.17;4.00;;;;;;;24.97;49.22;100847.13;3456563;84;98840;-82
2022/07/19 21:14:30;;;;;;;9.40;4.17;;;;;;;24.86;48.51;100848.80;3469636;85;98902;-82
2022/07/19 21:19:31;;;;;;;8.88;4.45;;;;;;;24.76;48.40;100852.82;3435113;84;98573;-81
2022/07/19 21:24:32;;;;;;;7.50;4.03;;;;;;;24.69;47.90;100858.75;3474814;83;32566;-81
2022/07/19 21:29:33;;;;;;;8.95;3.95;;;;;;;24.64;48.38;100866.38;3461731;85;98785;-81
2022/07/19 21:34:34;;;;;;;9.25;3.83;;;;;;;24.59;47.74;100859.34;3457013;84;98794;-80
2022/07/19 21:39:35;;;;;;;8.13;4.30;;;;;;;24.58;47.56;100858.38;3450123;84;98872;-80
2022/07/19 21:44:36;;;;;;;10.40;4.10;;;;;;;24.56;47.43;100858.80;3449609;85;98086;-80
2022/07/19 21:49:38;;;;;;;7.10;4.17;;;;;;;24.53;47.65;100861.13;3458749;85;99075;-80
2022/07/19 21:54:39;;;;;;;7.90;4.10;;;;;;;24.50;47.63;100864.08;3458738;84;25886;-80
2022/07/19 21:59:40;;;;;;;7.28;3.83;;;;;;;24.48;47.95;100857.53;3453815;84;99102;-79
2022/07/19 22:04:41;;;;;;;7.67;3.70;;;;;;;24.46;47.84;100862.05;3462034;84;98919;-81
2022/07/19 22:09:42;;;;;;;10.38;4.05;;;;;;;24.42;47.93;100862.16;3456046;85;98935;-80
2022/07/19 22:14:43;;;;;;;8.40;3.72;;;;;;;24.42;47.58;100867.79;3436829;85;99006;-79
2022/07/19 22:19:44;;;;;;;8.40;3.75;;;;;;;24.41;47.54;100866.86;3455750;84;98628;-79
2022/07/19 22:24:46;;;;;;;8.23;4.22;;;;;;;24.39;47.45;100867.32;3427060;85;25842;-79
2022/07/19 22:29:47;;;;;;;8.05;4.25;;;;;;;24.36;47.68;100877.30;3454549;85;98816;-79
2022/07/19 22:34:49;;;;;;;8.63;3.70;;;;;;;24.31;47.96;100880.07;3436623;85;99442;-79
2022/07/19 22:39:50;;;;;;;10.58;4.35;;;;;;;24.28;48.34;100880.22;3433799;84;98794;-79
2022/07/19 22:44:51;;;;;;;7.90;4.25;;;;;;;24.22;48.03;100878.63;3437843;84;99520;-79
2022/07/19 22:49:52;;;;;;;7.95;4.20;;;;;;;24.19;48.54;100876.72;3453807;83;98840;-79
2022/07/19 22:54:53;;;;;;;7.37;3.70;;;;;;;24.14;48.54;100881.53;3454254;85;26304;-79
2022/07/19 22:59:54;;;;;;;7.15;3.85;;;;;;;24.09;48.88;100882.12;3448667;84;98978;-79
2022/07/19 23:04:55;;;;;;;7.78;3.98;;;;;;;24.09;49.54;100878.53;3465265;85;98676;-79
2022/07/19 23:09:56;;;;;;;8.35;3.98;;;;;;;24.05;50.16;100876.47;3429225;85;98778;-79
2022/07/19 23:14:57;;;;;;;8.18;3.35;;;;;;;23.99;50.58;100879.10;3449702;84;98879;-79
2022/07/19 23:19:58;;;;;;;8.08;4.00;;;;;;;23.98;51.54;100877.50;3437627;85;98888;-79
2022/07/19 23:25:00;;;;;;;7.97;4.22;;;;;;;23.94;50.99;100873.27;3431053;85;33842;-79